Time;durP1;ratioP1;P1;durP2;ratioP2;P2;SDS_P1;SDS_P2;PMS_P1;PMS_P2;Temp;Humidity;BMP_temperature;BMP_pressure;BME280_temperature;BME280_humidity;BME280_pressure;Samples;Min_cycle;Max_cycle;Signal;HPM_P1;HPM_P2
2021/09/30 00:02:14;;;;;;;11.85;6.18;;;;;;;;;;4883271;29;20081;-69
2021/09/30 00:04:40;;;;;;;10.75;6.05;;;;;;;;;;4883273;29;20056;-69
2021/09/30 00:07:07;;;;;;;10.82;6.18;;;;;;;;;;4883228;29;20104;-68
2021/09/30 00:09:38;;;;;;;13.57;6.53;;;;;;;;;;4883213;29;20089;-67
2021/09/30 00:12:10;;;;;;;11.85;6.50;;;;;;;;;;4883129;29;20112;-66
2021/09/30 00:14:53;;;;;;;13.32;5.68;;;;;;;;;;4883340;29;20067;-68
2021/09/30 00:33:53;;;;;;;13.98;5.95;;;;;;;;;;4880211;29;20072;-68
2021/09/30 00:42:02;;;;;;;11.32;5.93;;;;;;;;;;4880254;29;20065;-67
2021/09/30 00:47:40;;;;;;;12.93;6.57;;;;;;;;;;4879941;29;20108;-67
2021/09/30 00:50:27;;;;;;;11.48;6.47;;;;;;;;;;4879564;29;20140;-67
2021/09/30 01:25:21;;;;;;;16.58;6.32;;;;;;;;;;4785591;29;20123;-67
2021/09/30 02:30:12;;;;;;;10.82;5.70;;;;;;;;;;4877881;29;20476;-66
2021/09/30 03:00:14;;;;;;;13.27;6.53;;;;;;;;;;4801850;29;20083;-66
2021/09/30 03:02:42;;;;;;;10.93;6.50;;;;;;;;;;4802058;29;20555;-67
2021/09/30 03:05:09;;;;;;;11.52;6.70;;;;;;;;;;4801983;29;20076;-67
2021/09/30 03:07:36;;;;;;;15.27;6.80;;;;;;;;;;4801965;29;20134;-66
2021/09/30 03:10:04;;;;;;;16.75;6.90;;;;;;;;;;4860119;29;20382;-67
2021/09/30 03:12:30;;;;;;;20.80;7.15;;;;;;;;;;4877515;29;20033;-66
2021/09/30 03:17:52;;;;;;;11.93;6.90;;;;;;;;;;4801767;29;20130;-66
2021/09/30 03:22:59;;;;;;;13.07;6.45;;;;;;;;;;4801704;29;20039;-67
2021/09/30 03:25:26;;;;;;;12.85;6.32;;;;;;;;;;4801694;29;20035;-67
2021/09/30 03:27:53;;;;;;;12.18;6.60;;;;;;;;;;4801745;29;20045;-66
2021/09/30 03:30:19;;;;;;;13.35;6.60;;;;;;;;;;4801552;29;20135;-67
2021/09/30 03:32:46;;;;;;;13.30;6.72;;;;;;;;;;4801783;29;20417;-67
2021/09/30 03:35:12;;;;;;;11.60;6.25;;;;;;;;;;4801590;29;20078;-66
2021/09/30 03:37:38;;;;;;;11.93;6.57;;;;;;;;;;4801847;29;20539;-66
2021/09/30 03:40:04;;;;;;;14.80;7.60;;;;;;;;;;4801419;29;20435;-67
2021/09/30 03:42:30;;;;;;;14.57;6.88;;;;;;;;;;4801576;29;20137;-66
2021/09/30 03:44:56;;;;;;;14.68;7.03;;;;;;;;;;4801584;29;20480;-66
2021/09/30 03:47:22;;;;;;;11.98;6.30;;;;;;;;;;4801127;29;20527;-66
2021/09/30 03:49:50;;;;;;;11.65;6.95;;;;;;;;;;4801410;29;20035;-65
2021/09/30 03:59:46;;;;;;;13.23;6.78;;;;;;;;;;4880583;29;20489;-66
2021/09/30 04:02:12;;;;;;;14.55;6.75;;;;;;;;;;4880418;29;20044;-65
2021/09/30 04:04:39;;;;;;;11.00;6.43;;;;;;;;;;4880336;29;20041;-65
2021/09/30 04:07:07;;;;;;;13.85;6.70;;;;;;;;;;4880350;29;20084;-66
2021/09/30 04:09:36;;;;;;;13.45;6.80;;;;;;;;;;4880420;29;20632;-66
2021/09/30 04:12:02;;;;;;;14.20;6.68;;;;;;;;;;4880399;29;20024;-66
2021/09/30 04:14:29;;;;;;;13.15;6.53;;;;;;;;;;4879931;29;20042;-65
2021/09/30 04:16:55;;;;;;;15.00;6.20;;;;;;;;;;4879892;29;20494;-67
2021/09/30 04:19:22;;;;;;;12.18;6.50;;;;;;;;;;4880220;29;20025;-67
2021/09/30 04:21:49;;;;;;;14.00;6.60;;;;;;;;;;4880177;29;20081;-67
2021/09/30 04:24:16;;;;;;;12.32;6.53;;;;;;;;;;4879943;29;20033;-65
2021/09/30 04:26:43;;;;;;;10.80;6.72;;;;;;;;;;4880207;29;20500;-68
2021/09/30 04:29:09;;;;;;;12.23;6.63;;;;;;;;;;4879517;29;20041;-66
2021/09/30 04:31:36;;;;;;;11.52;6.28;;;;;;;;;;4879687;29;20056;-65
2021/09/30 04:34:02;;;;;;;14.82;6.90;;;;;;;;;;4879832;29;20033;-66
2021/09/30 04:36:28;;;;;;;9.18;6.03;;;;;;;;;;4880061;29;20031;-67
2021/09/30 04:38:55;;;;;;;12.20;6.28;;;;;;;;;;4879966;29;20035;-67
2021/09/30 04:41:21;;;;;;;12.35;6.13;;;;;;;;;;4879863;29;20033;-67
2021/09/30 04:43:47;;;;;;;14.45;6.63;;;;;;;;;;4879394;29;20052;-67
2021/09/30 04:46:14;;;;;;;13.98;6.70;;;;;;;;;;4879822;29;20439;-67
2021/09/30 04:48:40;;;;;;;16.65;7.57;;;;;;;;;;4879701;29;20071;-66
2021/09/30 04:51:07;;;;;;;15.27;6.65;;;;;;;;;;4879913;29;20029;-66
2021/09/30 04:53:33;;;;;;;12.73;6.45;;;;;;;;;;4879661;29;20072;-67
2021/09/30 04:55:59;;;;;;;12.10;6.78;;;;;;;;;;4879728;29;20039;-66
2021/09/30 04:58:25;;;;;;;15.02;6.60;;;;;;;;;;4879508;29;20033;-65
2021/09/30 05:00:51;;;;;;;12.73;7.15;;;;;;;;;;4879342;29;20029;-66
2021/09/30 05:03:17;;;;;;;12.05;6.57;;;;;;;;;;4879449;29;20045;-66
2021/09/30 05:05:43;;;;;;;12.90;6.53;;;;;;;;;;4878963;29;20482;-65
2021/09/30 05:08:10;;;;;;;12.52;6.28;;;;;;;;;;4879522;29;20045;-62
2021/09/30 05:10:36;;;;;;;10.60;5.93;;;;;;;;;;4879550;29;20029;-62
2021/09/30 05:13:06;;;;;;;12.45;6.38;;;;;;;;;;4879066;29;20036;-63
2021/09/30 05:15:32;;;;;;;15.35;6.53;;;;;;;;;;4893192;29;20033;-62
2021/09/30 05:17:59;;;;;;;12.30;6.38;;;;;;;;;;4897143;29;20029;-63
2021/09/30 05:20:25;;;;;;;12.80;6.22;;;;;;;;;;4897820;29;20071;-61
2021/09/30 05:22:51;;;;;;;11.93;6.82;;;;;;;;;;4897778;29;20040;-61
2021/09/30 05:25:17;;;;;;;13.52;6.03;;;;;;;;;;4897961;29;20037;-64
2021/09/30 05:27:44;;;;;;;14.40;6.40;;;;;;;;;;4897680;29;20035;-64
2021/09/30 05:30:10;;;;;;;12.65;6.28;;;;;;;;;;4896966;29;20424;-64
2021/09/30 05:32:36;;;;;;;11.15;6.25;;;;;;;;;;4897600;29;20485;-63
2021/09/30 05:35:03;;;;;;;16.45;6.38;;;;;;;;;;4897265;29;20036;-63
2021/09/30 05:37:29;;;;;;;11.43;5.78;;;;;;;;;;4897135;29;20088;-62
2021/09/30 05:39:55;;;;;;;11.23;6.25;;;;;;;;;;4897241;29;20068;-63
2021/09/30 05:42:25;;;;;;;12.10;6.68;;;;;;;;;;4897336;29;20043;-63
2021/09/30 05:44:52;;;;;;;13.75;6.47;;;;;;;;;;4897420;29;20040;-64
2021/09/30 05:47:18;;;;;;;14.02;6.40;;;;;;;;;;4897255;29;20061;-63
2021/09/30 05:49:44;;;;;;;17.10;6.60;;;;;;;;;;4897041;29;20163;-63
2021/09/30 05:52:10;;;;;;;9.05;5.47;;;;;;;;;;4897272;29;20029;-63
2021/09/30 05:54:36;;;;;;;11.73;6.43;;;;;;;;;;4896896;29;20036;-65
2021/09/30 05:57:03;;;;;;;13.18;5.93;;;;;;;;;;4897039;29;20108;-63
2021/09/30 05:59:29;;;;;;;15.15;5.45;;;;;;;;;;4896617;29;20157;-63
2021/09/30 06:10:11;;;;;;;12.30;6.30;;;;;;;;;;4896129;29;20448;-62
2021/09/30 06:12:37;;;;;;;11.00;6.32;;;;;;;;;;4896708;29;20045;-62
2021/09/30 06:15:06;;;;;;;15.25;6.00;;;;;;;;;;4896702;29;20470;-62
2021/09/30 06:17:32;;;;;;;14.07;6.45;;;;;;;;;;4895942;29;20032;-61
2021/09/30 06:19:58;;;;;;;12.82;6.53;;;;;;;;;;4896411;29;20028;-62
2021/09/30 06:22:24;;;;;;;12.77;5.82;;;;;;;;;;4896397;29;20033;-65
2021/09/30 06:24:50;;;;;;;12.23;6.63;;;;;;;;;;4895955;29;20047;-65
2021/09/30 06:27:16;;;;;;;12.40;6.53;;;;;;;;;;4896840;29;20196;-63
2021/09/30 06:29:42;;;;;;;13.82;6.25;;;;;;;;;;4895981;29;20112;-63
2021/09/30 06:32:08;;;;;;;13.20;5.90;;;;;;;;;;4896266;29;20033;-63
2021/09/30 06:34:34;;;;;;;11.30;5.72;;;;;;;;;;4896420;29;20029;-64
2021/09/30 06:37:00;;;;;;;10.63;5.53;;;;;;;;;;4896163;29;20055;-66
2021/09/30 06:39:26;;;;;;;13.82;5.50;;;;;;;;;;4896257;29;20489;-72
2021/09/30 06:41:52;;;;;;;12.13;5.25;;;;;;;;;;4896050;29;20076;-68
2021/09/30 06:44:18;;;;;;;9.52;5.53;;;;;;;;;;4896006;29;20039;-63
2021/09/30 06:46:44;;;;;;;14.20;5.78;;;;;;;;;;4896040;29;20036;-63
2021/09/30 06:49:11;;;;;;;15.23;5.85;;;;;;;;;;4896051;29;20036;-66
2021/09/30 06:51:37;;;;;;;12.57;5.55;;;;;;;;;;4896058;29;20457;-64
2021/09/30 06:54:04;;;;;;;14.15;6.07;;;;;;;;;;4896039;29;20492;-64
2021/09/30 06:56:31;;;;;;;14.27;5.60;;;;;;;;;;4896163;29;20028;-70
2021/09/30 06:59:04;;;;;;;11.18;5.68;;;;;;;;;;4895999;29;20127;-62
2021/09/30 07:01:31;;;;;;;12.27;5.53;;;;;;;;;;4895853;29;20028;-65
2021/09/30 07:03:57;;;;;;;9.45;4.97;;;;;;;;;;4896126;29;20047;-63
2021/09/30 07:06:24;;;;;;;9.77;5.40;;;;;;;;;;4895786;29;20028;-68
2021/09/30 07:08:50;;;;;;;12.52;5.55;;;;;;;;;;4895620;29;20032;-68
2021/09/30 07:11:16;;;;;;;13.23;5.93;;;;;;;;;;4893555;29;20088;-69
2021/09/30 07:13:43;;;;;;;12.85;5.47;;;;;;;;;;4895296;29;20084;-64
2021/09/30 07:16:09;;;;;;;15.95;5.40;;;;;;;;;;4895396;29;20036;-66
2021/09/30 07:18:35;;;;;;;15.75;5.35;;;;;;;;;;4895641;29;20089;-66
2021/09/30 07:21:01;;;;;;;14.07;5.70;;;;;;;;;;4895913;29;20022;-63
2021/09/30 07:23:28;;;;;;;10.63;5.43;;;;;;;;;;4895291;29;20116;-64
2021/09/30 07:25:54;;;;;;;14.02;5.70;;;;;;;;;;4895558;29;20035;-64
2021/09/30 07:28:21;;;;;;;14.30;5.88;;;;;;;;;;4897787;29;20504;-68
2021/09/30 07:30:48;;;;;;;15.23;6.07;;;;;;;;;;4897343;29;20048;-64
2021/09/30 07:33:14;;;;;;;10.98;5.03;;;;;;;;;;4897600;29;20121;-61
2021/09/30 07:35:40;;;;;;;12.90;5.55;;;;;;;;;;4897712;29;20032;-69
2021/09/30 07:38:06;;;;;;;11.60;5.57;;;;;;;;;;4897612;29;20084;-64
2021/09/30 07:40:32;;;;;;;10.85;5.47;;;;;;;;;;4911536;29;20393;-71
2021/09/30 07:42:59;;;;;;;12.38;5.72;;;;;;;;;;4897830;29;20036;-69
2021/09/30 07:45:25;;;;;;;13.02;5.45;;;;;;;;;;4897926;29;20036;-70
2021/09/30 07:47:51;;;;;;;12.02;5.30;;;;;;;;;;4897670;29;20032;-68
2021/09/30 07:50:17;;;;;;;13.88;5.88;;;;;;;;;;4898037;29;20119;-64
2021/09/30 07:52:43;;;;;;;17.55;6.35;;;;;;;;;;4898405;29;20036;-64
2021/09/30 07:55:10;;;;;;;12.48;5.38;;;;;;;;;;4898840;29;20043;-64
2021/09/30 07:57:36;;;;;;;14.15;6.20;;;;;;;;;;4899174;29;20025;-67
2021/09/30 08:00:03;;;;;;;13.38;5.88;;;;;;;;;;4898996;29;20024;-63
2021/09/30 08:02:29;;;;;;;19.35;6.65;;;;;;;;;;4897113;29;20051;-63
2021/09/30 08:04:55;;;;;;;13.45;5.93;;;;;;;;;;4897761;29;20112;-64
2021/09/30 08:07:21;;;;;;;9.55;5.63;;;;;;;;;;4880401;29;20025;-63
2021/09/30 08:09:47;;;;;;;16.80;6.60;;;;;;;;;;4885355;29;20043;-63
2021/09/30 08:12:13;;;;;;;17.27;5.90;;;;;;;;;;4898573;29;20430;-66
2021/09/30 08:14:39;;;;;;;15.98;6.15;;;;;;;;;;4898471;29;20107;-67
2021/09/30 08:17:06;;;;;;;14.98;6.55;;;;;;;;;;4898214;29;20025;-62
2021/09/30 08:19:32;;;;;;;13.55;6.70;;;;;;;;;;4898560;29;20029;-62
2021/09/30 08:21:58;;;;;;;14.00;6.18;;;;;;;;;;4898299;29;20029;-62
2021/09/30 08:24:25;;;;;;;17.42;7.13;;;;;;;;;;4898189;29;20088;-66
2021/09/30 08:26:51;;;;;;;15.32;6.85;;;;;;;;;;4897904;29;20025;-63
2021/09/30 08:29:18;;;;;;;13.57;6.72;;;;;;;;;;4898491;29;20442;-64
2021/09/30 08:31:45;;;;;;;17.95;6.55;;;;;;;;;;4898550;29;20040;-65
2021/09/30 08:34:11;;;;;;;13.88;6.50;;;;;;;;;;4898191;29;20035;-66
2021/09/30 08:36:37;;;;;;;17.75;6.88;;;;;;;;;;4898475;29;20095;-65
2021/09/30 08:39:05;;;;;;;19.23;6.72;;;;;;;;;;4897518;29;20029;-69
2021/09/30 08:41:31;;;;;;;14.45;6.57;;;;;;;;;;4898146;29;20539;-67
2021/09/30 08:43:57;;;;;;;15.77;7.05;;;;;;;;;;4897909;29;20527;-66
2021/09/30 08:46:24;;;;;;;14.65;7.13;;;;;;;;;;4898305;29;20025;-67
2021/09/30 08:48:50;;;;;;;21.23;8.02;;;;;;;;;;4898454;29;20037;-66
2021/09/30 08:51:17;;;;;;;17.40;7.10;;;;;;;;;;4898531;29;20548;-66
2021/09/30 08:53:44;;;;;;;19.75;8.10;;;;;;;;;;4898503;29;20032;-65
2021/09/30 08:56:10;;;;;;;13.73;6.70;;;;;;;;;;4898667;29;20500;-67
2021/09/30 08:58:37;;;;;;;17.80;7.28;;;;;;;;;;4898116;29;20576;-66
2021/09/30 09:01:04;;;;;;;19.50;6.85;;;;;;;;;;4880954;29;20068;-67
2021/09/30 09:03:50;;;;;;;26.10;7.43;;;;;;;;;;4898038;29;20033;-67
2021/09/30 09:06:30;;;;;;;22.13;8.10;;;;;;;;;;4898115;29;20042;-71
2021/09/30 09:09:19;;;;;;;12.25;6.18;;;;;;;;;;4898195;29;20068;-67
2021/09/30 09:11:45;;;;;;;18.25;7.10;;;;;;;;;;4898433;29;20025;-82
2021/09/30 09:14:11;;;;;;;19.08;7.13;;;;;;;;;;4898350;29;20120;-66
2021/09/30 09:16:37;;;;;;;19.25;7.40;;;;;;;;;;4897924;29;20076;-67
2021/09/30 09:19:03;;;;;;;18.40;7.50;;;;;;;;;;4897773;29;20052;-67
2021/09/30 09:21:29;;;;;;;14.18;7.57;;;;;;;;;;4897616;29;20033;-66
2021/09/30 09:23:57;;;;;;;21.27;7.60;;;;;;;;;;4897325;29;20119;-67
2021/09/30 09:26:40;;;;;;;14.70;7.05;;;;;;;;;;4897645;29;20032;-66
2021/09/30 09:29:09;;;;;;;21.65;6.70;;;;;;;;;;4897346;29;20040;-70
2021/09/30 09:31:41;;;;;;;13.95;6.50;;;;;;;;;;4897519;29;20029;-66
2021/09/30 09:34:20;;;;;;;18.35;7.47;;;;;;;;;;4897471;29;20058;-69
2021/09/30 09:36:49;;;;;;;15.05;7.53;;;;;;;;;;4897265;29;20029;-65
2021/09/30 09:39:15;;;;;;;21.63;7.18;;;;;;;;;;4896473;29;20024;-69
2021/09/30 09:41:41;;;;;;;17.05;7.00;;;;;;;;;;4897203;29;20040;-63
2021/09/30 09:44:08;;;;;;;18.10;7.15;;;;;;;;;;4895988;29;20393;-67
2021/09/30 09:46:35;;;;;;;16.65;7.47;;;;;;;;;;4895671;29;20500;-65
2021/09/30 09:49:19;;;;;;;18.92;7.05;;;;;;;;;;4894820;29;20133;-63
2021/09/30 09:51:49;;;;;;;15.95;7.10;;;;;;;;;;4893849;29;20096;-65
2021/09/30 09:54:26;;;;;;;12.43;6.20;;;;;;;;;;4895648;29;20477;-67
2021/09/30 09:56:52;;;;;;;16.70;6.65;;;;;;;;;;4893573;29;20169;-64
2021/09/30 09:59:40;;;;;;;16.13;7.10;;;;;;;;;;4895900;29;20092;-63
2021/09/30 10:02:06;;;;;;;17.63;6.78;;;;;;;;;;4896832;29;20044;-67
2021/09/30 10:04:33;;;;;;;16.52;6.50;;;;;;;;;;4896376;29;20036;-65
2021/09/30 10:06:59;;;;;;;18.77;6.68;;;;;;;;;;4910553;29;20025;-66
2021/09/30 10:09:26;;;;;;;23.58;7.68;;;;;;;;;;4896761;29;20033;-67
2021/09/30 10:11:52;;;;;;;19.00;7.38;;;;;;;;;;4896815;29;20048;-67
2021/09/30 10:14:18;;;;;;;23.13;8.80;;;;;;;;;;4896618;29;20111;-70
2021/09/30 10:16:49;;;;;;;18.63;6.93;;;;;;;;;;4896619;29;20037;-67
2021/09/30 10:19:17;;;;;;;18.08;7.60;;;;;;;;;;4896679;29;20377;-65
2021/09/30 10:21:43;;;;;;;20.33;7.85;;;;;;;;;;4896572;29;20033;-65
2021/09/30 10:24:16;;;;;;;18.52;8.07;;;;;;;;;;4894371;29;20028;-67
2021/09/30 10:26:50;;;;;;;12.77;6.80;;;;;;;;;;4896488;29;20430;-68
2021/09/30 10:29:35;;;;;;;24.20;9.45;;;;;;;;;;4895992;29;20042;-68
2021/09/30 10:32:02;;;;;;;18.15;7.35;;;;;;;;;;4895224;29;20036;-67
2021/09/30 10:34:32;;;;;;;17.10;8.63;;;;;;;;;;4888411;29;20116;-69
2021/09/30 10:37:16;;;;;;;25.67;10.02;;;;;;;;;;4862751;29;20084;-66
2021/09/30 10:39:48;;;;;;;25.20;10.02;;;;;;;;;;4895513;29;20024;-68
2021/09/30 10:42:14;;;;;;;;;;;;;;;;;;4896058;29;20036;-66
2021/09/30 10:44:40;;;;;;;23.83;8.27;;;;;;;;;;4895670;29;19915;-68
2021/09/30 10:47:07;;;;;;;22.38;8.95;;;;;;;;;;4895386;29;20029;-68
2021/09/30 10:49:36;;;;;;;21.30;8.40;;;;;;;;;;4895457;29;20116;-68
2021/09/30 10:52:14;;;;;;;22.27;8.20;;;;;;;;;;4894985;29;20028;-68
2021/09/30 10:54:41;;;;;;;16.02;7.95;;;;;;;;;;4896440;29;20032;-69
2021/09/30 10:57:25;;;;;;;20.67;8.25;;;;;;;;;;4898936;29;20029;-69
2021/09/30 10:59:51;;;;;;;19.75;7.60;;;;;;;;;;4893574;29;20069;-68
2021/09/30 11:02:17;;;;;;;21.33;8.90;;;;;;;;;;4895184;29;20080;-66
2021/09/30 11:05:02;;;;;;;29.00;11.15;;;;;;;;;;4895366;29;20075;-66
2021/09/30 11:07:28;;;;;;;27.42;10.65;;;;;;;;;;4893850;29;20057;-66
2021/09/30 11:10:21;;;;;;;22.00;10.70;;;;;;;;;;4894374;29;20060;-65
2021/09/30 11:13:06;;;;;;;29.73;12.23;;;;;;;;;;4891925;29;20452;-66
2021/09/30 11:15:50;;;;;;;21.42;9.57;;;;;;;;;;4889083;29;20140;-66
2021/09/30 11:18:36;;;;;;;24.50;10.48;;;;;;;;;;4894774;29;20792;-68
2021/09/30 11:21:02;;;;;;;20.10;9.05;;;;;;;;;;4894009;29;20036;-69
2021/09/30 11:23:47;;;;;;;23.30;10.07;;;;;;;;;;4894581;29;20504;-66
2021/09/30 11:26:13;;;;;;;31.17;12.13;;;;;;;;;;4892891;29;20384;-69
2021/09/30 11:28:39;;;;;;;31.85;11.63;;;;;;;;;;4890640;29;20542;-68
2021/09/30 11:31:24;;;;;;;23.55;11.10;;;;;;;;;;4885689;29;20053;-71
2021/09/30 11:33:51;;;;;;;23.48;10.40;;;;;;;;;;4887770;29;20033;-70
2021/09/30 11:36:17;;;;;;;26.25;11.07;;;;;;;;;;4892131;29;20040;-70
2021/09/30 11:38:43;;;;;;;25.95;10.50;;;;;;;;;;4888305;29;20056;-69
2021/09/30 11:41:10;;;;;;;24.48;10.95;;;;;;;;;;4890360;29;20495;-70
2021/09/30 11:43:36;;;;;;;19.95;10.13;;;;;;;;;;4887692;29;20107;-70
2021/09/30 11:46:21;;;;;;;27.90;10.18;;;;;;;;;;4889593;29;20029;-69
2021/09/30 11:48:59;;;;;;;23.67;10.98;;;;;;;;;;4894201;29;20041;-68
2021/09/30 11:51:35;;;;;;;20.63;11.98;;;;;;;;;;4894448;29;20445;-69
2021/09/30 11:54:02;;;;;;;28.13;12.68;;;;;;;;;;4894090;29;20116;-70
2021/09/30 11:56:28;;;;;;;29.65;14.35;;;;;;;;;;4893758;29;20029;-71
2021/09/30 11:59:02;;;;;;;28.20;12.73;;;;;;;;;;4893590;29;20036;-70
2021/09/30 12:01:35;;;;;;;27.52;12.77;;;;;;;;;;4894263;29;20036;-68
2021/09/30 12:04:01;;;;;;;27.65;13.75;;;;;;;;;;4893437;29;20463;-68
2021/09/30 12:06:42;;;;;;;32.05;15.85;;;;;;;;;;4894149;29;20037;-67
2021/09/30 12:09:10;;;;;;;32.42;14.77;;;;;;;;;;4894461;29;20508;-68
2021/09/30 12:11:36;;;;;;;32.80;14.57;;;;;;;;;;4893700;29;20029;-69
2021/09/30 12:14:03;;;;;;;30.85;14.70;;;;;;;;;;4894497;29;20438;-68
2021/09/30 12:16:29;;;;;;;26.88;12.98;;;;;;;;;;4897031;29;20047;-67
2021/09/30 12:19:03;;;;;;;31.77;14.05;;;;;;;;;;4897652;29;20046;-68
2021/09/30 12:21:39;;;;;;;29.45;13.73;;;;;;;;;;4896401;29;20036;-67
2021/09/30 12:24:08;;;;;;;28.88;12.52;;;;;;;;;;4895021;29;20040;-67
2021/09/30 12:26:35;;;;;;;25.80;12.25;;;;;;;;;;4897156;29;20050;-68
2021/09/30 12:29:02;;;;;;;23.55;12.07;;;;;;;;;;4855055;29;1144592;-69
2021/09/30 12:31:32;;;;;;;25.88;12.75;;;;;;;;;;4896917;29;20041;-67
2021/09/30 12:33:58;;;;;;;28.17;14.18;;;;;;;;;;4897422;29;20042;-69
2021/09/30 12:36:24;;;;;;;31.10;12.55;;;;;;;;;;4896943;29;20079;-66
2021/09/30 12:39:03;;;;;;;25.25;11.90;;;;;;;;;;4896836;29;20043;-66
2021/09/30 12:41:30;;;;;;;23.58;12.35;;;;;;;;;;4898405;29;20036;-65
2021/09/30 12:44:09;;;;;;;29.13;13.25;;;;;;;;;;4897568;29;20025;-65
2021/09/30 12:46:43;;;;;;;26.77;13.82;;;;;;;;;;4897925;29;20031;-65
2021/09/30 12:49:09;;;;;;;31.05;15.95;;;;;;;;;;4898296;29;20024;-67
2021/09/30 12:51:35;;;;;;;31.33;17.48;;;;;;;;;;4898044;29;20029;-72
2021/09/30 12:54:01;;;;;;;35.92;17.42;;;;;;;;;;4897999;29;20072;-63
2021/09/30 15:38:23;;;;;;;25.85;14.93;;;;;;;;;;5254611;23;20412;-66
2021/09/30 15:40:49;;;;;;;29.45;15.90;;;;;;;;;;4911633;29;20036;-64
2021/09/30 15:43:15;;;;;;;23.60;15.32;;;;;;;;;;4913854;29;20076;-64
2021/09/30 15:45:44;;;;;;;25.27;16.15;;;;;;;;;;4913887;29;20028;-62
2021/09/30 15:48:10;;;;;;;27.85;15.93;;;;;;;;;;4914273;29;20058;-69
2021/09/30 15:50:36;;;;;;;25.80;15.52;;;;;;;;;;4917933;29;20039;-67
2021/09/30 15:53:02;;;;;;;28.77;17.02;;;;;;;;;;4917594;29;20064;-69
2021/09/30 15:55:28;;;;;;;27.90;16.20;;;;;;;;;;4917357;29;20032;-64
2021/09/30 15:57:54;;;;;;;28.75;16.60;;;;;;;;;;4900361;29;20052;-64
2021/09/30 16:00:20;;;;;;;31.17;17.80;;;;;;;;;;4917670;29;20039;-66
2021/09/30 16:02:46;;;;;;;28.65;17.13;;;;;;;;;;4917792;29;20036;-68
2021/09/30 16:05:12;;;;;;;31.88;18.27;;;;;;;;;;4917564;29;20036;-65
2021/09/30 16:07:38;;;;;;;39.28;21.73;;;;;;;;;;4917791;29;20481;-70
2021/09/30 16:10:05;;;;;;;37.22;21.77;;;;;;;;;;4917398;29;20043;-65
2021/09/30 16:12:31;;;;;;;33.80;20.40;;;;;;;;;;4915712;29;20100;-68
2021/09/30 16:14:57;;;;;;;38.55;19.33;;;;;;;;;;4916995;29;20039;-66
2021/09/30 16:17:23;;;;;;;31.45;19.05;;;;;;;;;;4916574;29;20036;-69
2021/09/30 16:19:51;;;;;;;100.57;57.65;;;;;;;;;;4917155;29;20539;-67
2021/09/30 16:22:17;;;;;;;54.88;32.38;;;;;;;;;;4899727;29;20168;-67
2021/09/30 16:24:44;;;;;;;48.83;27.73;;;;;;;;;;4917127;29;20032;-66
2021/09/30 16:27:10;;;;;;;47.47;26.00;;;;;;;;;;4917425;29;20032;-64
2021/09/30 16:29:36;;;;;;;43.50;24.55;;;;;;;;;;4916953;29;20105;-68
2021/09/30 16:32:03;;;;;;;49.55;23.95;;;;;;;;;;4916823;29;20409;-63
2021/09/30 16:34:29;;;;;;;38.42;21.05;;;;;;;;;;4916919;29;20721;-65
2021/09/30 16:36:55;;;;;;;30.65;17.80;;;;;;;;;;4899927;29;20024;-63
2021/09/30 16:39:21;;;;;;;37.95;22.55;;;;;;;;;;4916596;29;20056;-69
2021/09/30 16:41:47;;;;;;;56.60;29.70;;;;;;;;;;4916917;29;20032;-63
2021/09/30 16:44:15;;;;;;;37.33;20.35;;;;;;;;;;4916185;29;20035;-68
2021/09/30 16:46:41;;;;;;;30.40;18.98;;;;;;;;;;4916704;29;20449;-64
2021/09/30 16:49:07;;;;;;;51.53;23.95;;;;;;;;;;4916896;29;20107;-67
2021/09/30 16:51:33;;;;;;;30.80;18.15;;;;;;;;;;4916735;29;20063;-63
2021/09/30 16:53:59;;;;;;;36.05;18.20;;;;;;;;;;4916669;29;20072;-64
2021/09/30 16:56:25;;;;;;;34.33;19.02;;;;;;;;;;4916360;29;20027;-68
2021/09/30 16:58:51;;;;;;;30.95;17.65;;;;;;;;;;4916481;29;20055;-63
2021/09/30 17:01:19;;;;;;;31.08;18.20;;;;;;;;;;4915940;29;20024;-64
2021/09/30 17:03:45;;;;;;;31.67;17.83;;;;;;;;;;4916405;29;20039;-66
2021/09/30 17:06:11;;;;;;;31.67;18.02;;;;;;;;;;4916589;29;20365;-63
2021/09/30 17:08:37;;;;;;;32.80;18.60;;;;;;;;;;4916708;29;20032;-64
2021/09/30 17:11:04;;;;;;;31.55;17.77;;;;;;;;;;4914126;29;20028;-64
2021/09/30 17:13:30;;;;;;;32.40;18.85;;;;;;;;;;4916273;29;20024;-68
2021/09/30 17:15:59;;;;;;;35.63;18.63;;;;;;;;;;4916243;29;20059;-64
2021/09/30 17:18:25;;;;;;;35.22;20.50;;;;;;;;;;4916106;29;20562;-66
2021/09/30 17:20:52;;;;;;;32.97;19.08;;;;;;;;;;4916647;29;20040;-64
2021/09/30 17:23:18;;;;;;;30.63;19.17;;;;;;;;;;4915958;29;20119;-63
2021/09/30 17:25:47;;;;;;;34.90;20.52;;;;;;;;;;4916091;29;20047;-66
2021/09/30 17:28:13;;;;;;;50.53;23.95;;;;;;;;;;4898918;29;21071;-64
2021/09/30 17:30:39;;;;;;;42.72;24.45;;;;;;;;;;4916011;29;20043;-66
2021/09/30 17:33:06;;;;;;;43.97;24.00;;;;;;;;;;4915821;29;20032;-67
2021/09/30 17:35:33;;;;;;;42.03;23.45;;;;;;;;;;4915777;29;20032;-63
2021/09/30 17:37:59;;;;;;;41.75;24.75;;;;;;;;;;4915621;29;20123;-67
2021/09/30 17:40:25;;;;;;;39.35;23.63;;;;;;;;;;4915811;29;20043;-67
2021/09/30 17:42:51;;;;;;;48.88;26.58;;;;;;;;;;4916048;29;20035;-63
2021/09/30 17:45:17;;;;;;;43.72;25.10;;;;;;;;;;4915654;29;20165;-64
2021/09/30 17:47:43;;;;;;;43.80;25.20;;;;;;;;;;4915425;29;20127;-63
2021/09/30 17:50:10;;;;;;;40.63;23.90;;;;;;;;;;4915752;29;20168;-63
2021/09/30 17:52:36;;;;;;;42.53;24.85;;;;;;;;;;4915253;29;20333;-65
2021/09/30 17:55:04;;;;;;;41.85;25.17;;;;;;;;;;4915659;29;20028;-64
2021/09/30 17:57:30;;;;;;;40.80;24.55;;;;;;;;;;4915584;29;20028;-67
2021/09/30 17:59:56;;;;;;;42.13;24.58;;;;;;;;;;4915727;29;20031;-63
2021/09/30 18:02:22;;;;;;;42.13;24.85;;;;;;;;;;4915607;29;20024;-63
2021/09/30 18:04:48;;;;;;;44.35;26.10;;;;;;;;;;4915846;29;20040;-63
2021/09/30 18:07:14;;;;;;;43.15;26.55;;;;;;;;;;4915289;29;20400;-63
2021/09/30 18:09:40;;;;;;;44.35;26.95;;;;;;;;;;4915331;29;20103;-64
2021/09/30 18:12:06;;;;;;;43.60;24.95;;;;;;;;;;4914709;29;20095;-67
2021/09/30 18:14:32;;;;;;;39.95;25.63;;;;;;;;;;4915457;29;20052;-63
2021/09/30 18:16:59;;;;;;;42.05;25.30;;;;;;;;;;4915488;29;20031;-67
2021/09/30 18:19:26;;;;;;;42.47;25.98;;;;;;;;;;4915255;29;20039;-66
2021/09/30 18:21:53;;;;;;;44.25;25.77;;;;;;;;;;4915362;29;20032;-63
2021/09/30 18:24:22;;;;;;;42.33;26.20;;;;;;;;;;4915149;29;20036;-65
2021/09/30 18:26:49;;;;;;;43.58;25.67;;;;;;;;;;4897907;29;20044;-64
2021/09/30 18:29:16;;;;;;;40.35;25.63;;;;;;;;;;4915011;29;20055;-67
2021/09/30 18:31:43;;;;;;;40.58;24.38;;;;;;;;;;4915146;29;20103;-64
2021/09/30 18:34:10;;;;;;;37.45;22.48;;;;;;;;;;4914898;29;20468;-67
2021/09/30 18:36:36;;;;;;;32.95;20.80;;;;;;;;;;4915149;29;20068;-63
2021/09/30 18:39:03;;;;;;;36.58;21.45;;;;;;;;;;4899388;29;20052;-66
2021/09/30 18:41:29;;;;;;;38.40;23.77;;;;;;;;;;4914472;29;20032;-66
2021/09/30 18:43:56;;;;;;;40.83;24.63;;;;;;;;;;4909277;29;20057;-67
2021/09/30 18:46:22;;;;;;;41.33;23.45;;;;;;;;;;4914401;29;20029;-64
2021/09/30 18:48:49;;;;;;;38.75;22.30;;;;;;;;;;4914740;29;20131;-67
2021/09/30 18:51:16;;;;;;;36.10;21.63;;;;;;;;;;4913932;29;20486;-63
2021/09/30 18:53:42;;;;;;;37.65;22.80;;;;;;;;;;4911167;29;20421;-63
2021/09/30 18:56:08;;;;;;;39.13;23.77;;;;;;;;;;4913529;29;20492;-64
2021/09/30 18:58:35;;;;;;;31.65;18.45;;;;;;;;;;4914462;29;20122;-65
2021/09/30 19:01:02;;;;;;;29.70;17.35;;;;;;;;;;4914897;29;20024;-64
2021/09/30 19:03:29;;;;;;;30.02;17.58;;;;;;;;;;4914715;29;20020;-65
2021/09/30 19:05:56;;;;;;;32.83;18.05;;;;;;;;;;4914467;29;20084;-63
2021/09/30 19:08:23;;;;;;;31.08;18.13;;;;;;;;;;4913600;29;20477;-65
2021/09/30 19:10:49;;;;;;;30.80;18.00;;;;;;;;;;4913205;29;20036;-63
2021/09/30 19:13:16;;;;;;;34.25;18.88;;;;;;;;;;4913339;29;20024;-63
2021/09/30 19:15:42;;;;;;;23.77;16.13;;;;;;;;;;4913295;29;20017;-63
2021/09/30 19:18:08;;;;;;;26.92;16.48;;;;;;;;;;4913149;29;20063;-63
2021/09/30 19:20:35;;;;;;;27.85;17.27;;;;;;;;;;4912724;29;20028;-63
2021/09/30 19:23:01;;;;;;;28.77;17.63;;;;;;;;;;4912559;29;20043;-62
2021/09/30 19:25:29;;;;;;;30.10;17.15;;;;;;;;;;4917327;29;20021;-64
2021/09/30 19:27:58;;;;;;;31.85;17.60;;;;;;;;;;4918231;29;20500;-64
2021/09/30 19:30:25;;;;;;;29.25;17.90;;;;;;;;;;4901195;29;20491;-63
2021/09/30 19:32:55;;;;;;;31.77;18.02;;;;;;;;;;4918153;29;20023;-63
2021/09/30 19:35:22;;;;;;;30.65;16.95;;;;;;;;;;4918104;29;20040;-63
2021/09/30 19:37:48;;;;;;;30.73;17.10;;;;;;;;;;4900309;29;20060;-64
2021/09/30 19:40:16;;;;;;;29.35;16.52;;;;;;;;;;4918000;29;20040;-65
2021/09/30 19:42:43;;;;;;;28.65;16.83;;;;;;;;;;4918148;29;20024;-63
2021/09/30 19:45:10;;;;;;;28.98;17.75;;;;;;;;;;4917680;29;20032;-64
2021/09/30 19:47:36;;;;;;;29.50;16.67;;;;;;;;;;4915896;29;20035;-64
2021/09/30 19:50:03;;;;;;;31.42;16.83;;;;;;;;;;4917667;29;20035;-63
2021/09/30 19:52:29;;;;;;;28.60;17.27;;;;;;;;;;4917741;29;20106;-65
2021/09/30 19:54:55;;;;;;;29.40;16.52;;;;;;;;;;4917908;29;20085;-65
2021/09/30 19:57:21;;;;;;;30.50;17.42;;;;;;;;;;4917561;29;20020;-62
2021/09/30 19:59:48;;;;;;;31.10;17.67;;;;;;;;;;4917714;29;20028;-64